Reed Plt, Maine
Current Conditions -  °F | °C
As of 6:53 PM on Sunday 25 Jan 2015 (Local Time) from KHUL Reporting Station
Clear Clear  
Wind Chill: -5°   Ceiling: Unl
Heat Index:   Visibility: 10mi
Dew Point: -6°   Wind: 9mph
Humidity: 53%   Direction: 260°W
Pressure: 29.63"   Gusts: NA
Location:  45.7877°N, 68.0764°W
Report Text: KHUL 252353Z AUTO 26008KT 10SM CLR M13/M21 A2963 RMK AO2 SLP043 T11331211 11056 21133 51050
Loading
Personal Weather Stations






























Interactive Weather Map New forecast layout! Learn more

10-Day Weather Forecast

Advertisements
Track Severe Weather on mobile